Portada
METAR-TAF:

METAR-TAF

Aeroports :

Villavicencio, Colòmbia

latitud: 04-10N, longitud: 073-37W, altitud: 423 m

Observació

L'informe es va fer fa 48 minuts, a les 14:00 UTC
Vent 2 kt amb direcció variable
Temperatura 20°C
Humitat 100%
Pressió 1019 hPa
Visibilitat: 4000 m
Cel cobert a una alçada de 1000 ft
pluja

METAR: SKVV 161400Z VRB02KT 4000 -RA OVC010 20/20 A3010

Hora: 09:48 (14:48 UTC)


TAF: manca

Observacions i pronòstics meteorològics de més de 4000 aeroports (METAR i TAF).

Les estacions disponibles són els punts grocs i vermells al mapa.

Posi el ratolí al punt desitjat per veure el nom de l'estació.

Feu clic per veure les observacions i els pronòstics meteorològics.

Per canviar el mapa: feu clic els botons verds amb una creu de color negre per apropar; al botó verd amb un guió per allunyar la imatge; o en les fletxes verdes per a mapes adjacents.


METAR-TAF: